createdAt,value
2018-05-23T00:05:18.425Z,20.4
2018-05-23T00:15:17.649Z,20.4
2018-05-23T00:25:16.903Z,20.3
2018-05-23T00:35:15.999Z,20.3
2018-05-23T00:45:15.206Z,20.3
2018-05-23T00:55:14.506Z,20.2
2018-05-23T01:05:13.673Z,20.2
2018-05-23T01:15:12.854Z,20.1
2018-05-23T01:25:12.071Z,20.1
2018-05-23T01:35:11.293Z,20
2018-05-23T01:45:10.577Z,19.9
2018-05-23T01:55:09.791Z,19.9
2018-05-23T02:05:09.170Z,19.8
2018-05-23T02:15:08.271Z,19.8
2018-05-23T02:25:07.357Z,19.8
2018-05-23T02:35:06.630Z,19.7
2018-05-23T02:45:05.792Z,19.6
2018-05-23T02:55:05.127Z,19.6
2018-05-23T03:05:04.297Z,19.5
2018-05-23T03:15:03.485Z,19.4
2018-05-23T03:25:02.948Z,19.4
2018-05-23T03:35:01.996Z,19.4
2018-05-23T03:45:01.155Z,19.5
2018-05-23T03:55:00.362Z,19.6
2018-05-23T04:04:59.552Z,19.6
2018-05-23T04:14:58.714Z,19.8
2018-05-23T04:24:58.130Z,19.9
2018-05-23T04:34:57.224Z,20.1
2018-05-23T04:44:56.647Z,20.3
2018-05-23T04:54:55.572Z,20.5
2018-05-23T05:04:54.788Z,20.8
2018-05-23T05:14:54.078Z,21.1
2018-05-23T05:24:53.683Z,21.4
2018-05-23T05:34:52.762Z,21.7
2018-05-23T05:44:51.696Z,22
2018-05-23T05:54:50.937Z,22.3
2018-05-23T06:04:50.152Z,22.5
2018-05-23T06:14:49.373Z,22.7
2018-05-23T06:24:48.546Z,22.9
2018-05-23T06:34:47.777Z,23.1
2018-05-23T06:44:46.941Z,23.3
2018-05-23T06:54:46.167Z,23.4
2018-05-23T07:04:45.466Z,23.4
2018-05-23T07:14:44.869Z,23.6
2018-05-23T07:24:43.895Z,23.6
2018-05-23T07:34:43.118Z,23.8
2018-05-23T07:44:42.299Z,23.9
2018-05-23T07:54:41.547Z,24.1
2018-05-23T08:04:40.772Z,24.3
2018-05-23T08:14:39.954Z,24.4
2018-05-23T08:24:39.122Z,24.4
2018-05-23T08:34:38.493Z,24.3
2018-05-23T08:44:37.560Z,24.3
2018-05-23T08:54:36.831Z,24.3
2018-05-23T09:04:36.000Z,24.3
2018-05-23T09:14:35.274Z,24.4
2018-05-23T09:24:34.442Z,24.4
2018-05-23T09:34:33.660Z,24.3
2018-05-23T09:44:32.887Z,24.2
2018-05-23T09:54:32.108Z,24.3
2018-05-23T10:04:31.424Z,24.3
2018-05-23T10:14:30.542Z,24.4
2018-05-23T10:24:29.762Z,24.4
2018-05-23T10:34:28.991Z,24.5
2018-05-23T10:44:28.199Z,24.5
2018-05-23T10:54:27.421Z,24.6
2018-05-23T11:04:26.929Z,24.6
2018-05-23T11:14:25.912Z,24.6
2018-05-23T11:24:25.379Z,24.6
2018-05-23T11:34:24.348Z,24.6
2018-05-23T11:44:23.517Z,24.6
2018-05-23T11:54:22.751Z,24.6
2018-05-23T12:04:22.004Z,24.6
2018-05-23T12:14:21.456Z,24.6
2018-05-23T12:24:20.397Z,24.7
2018-05-23T12:34:19.947Z,24.6
2018-05-23T12:44:18.834Z,24.6
2018-05-23T12:54:18.113Z,24.5
2018-05-23T13:04:17.357Z,24.4
2018-05-23T13:14:16.590Z,24.3
2018-05-23T13:24:16.013Z,24.2
